Time;durP1;ratioP1;P1;durP2;ratioP2;P2;SDS_P1;SDS_P2;PMS_P1;PMS_P2;Temp;Humidity;BMP_temperature;BMP_pressure;BME280_temperature;BME280_humidity;BME280_pressure;Samples;Min_cycle;Max_cycle;Signal;HPM_P1;HPM_P2
2023/07/05 00:00:31;;;;;;;;;10.33;8.00;;;;;15.56;69.54;100788.25;4947819;28;45347;-69
2023/07/05 00:02:57;;;;;;;;;9.00;9.00;;;;;15.36;71.22;100770.41;4953395;28;45406;-70
2023/07/05 00:05:22;;;;;;;;;12.33;9.33;;;;;15.21;71.95;100757.94;4958416;28;45251;-70
2023/07/05 00:07:48;;;;;;;;;10.33;8.33;;;;;15.21;70.19;100762.38;4958924;28;45396;-70
2023/07/05 00:10:14;;;;;;;;;9.00;9.00;;;;;15.29;71.15;100794.34;4958921;28;45176;-70
2023/07/05 00:12:39;;;;;;;;;8.00;8.00;;;;;15.32;70.37;100797.00;4956851;28;45426;-70
2023/07/05 00:15:06;;;;;;;;;9.00;7.33;;;;;15.27;70.25;100798.78;4940958;28;46028;-69
2023/07/05 00:17:33;;;;;;;;;11.33;11.00;;;;;15.29;70.58;100810.31;4956252;28;45500;-70
2023/07/05 00:19:59;;;;;;;;;9.00;8.00;;;;;15.27;71.34;100813.00;4959609;28;45445;-70
2023/07/05 00:22:26;;;;;;;;;3.00;3.00;;;;;15.25;70.22;100809.41;4957235;28;45443;-70
2023/07/05 00:24:53;;;;;;;;;10.00;9.00;;;;;14.87;70.91;100756.88;4959872;28;45187;-69
2023/07/05 00:27:18;;;;;;;;;15.33;12.33;;;;;15.01;71.28;100802.16;4957787;28;45389;-70
2023/07/05 00:29:44;;;;;;;;;9.67;9.67;;;;;14.91;70.44;100784.38;4959481;28;45221;-70
2023/07/05 00:32:09;;;;;;;;;12.67;9.67;;;;;14.97;70.32;100790.63;4957533;28;53642;-70
2023/07/05 00:34:34;;;;;;;;;10.00;10.00;;;;;15.15;70.39;100821.81;4963558;28;53916;-70
2023/07/05 00:36:59;;;;;;;;;13.33;12.00;;;;;15.06;71.33;100815.53;4957760;28;45280;-70
2023/07/05 00:39:26;;;;;;;;;13.67;12.00;;;;;15.11;70.00;100824.44;4941983;28;45337;-70
2023/07/05 00:41:52;;;;;;;;;9.33;9.33;;;;;15.09;70.07;100834.16;4941637;28;45300;-70
2023/07/05 00:44:17;;;;;;;;;9.00;9.00;;;;;14.90;69.43;100806.53;4958675;28;45459;-70
2023/07/05 00:46:47;;;;;;;;;11.33;10.67;;;;;15.00;70.25;100832.34;4957164;28;45681;-70
2023/07/05 00:49:18;;;;;;;;;11.00;9.67;;;;;15.04;69.88;100833.25;4959166;28;45351;-70
2023/07/05 00:51:53;;;;;;;;;12.33;10.67;;;;;14.71;70.58;100790.47;4956011;28;45491;-69
2023/07/05 00:54:23;;;;;;;;;9.67;8.00;;;;;14.98;69.96;100845.66;4954731;28;45260;-70
2023/07/05 00:56:53;;;;;;;;;14.67;11.00;;;;;14.65;70.19;100798.41;4952875;28;47186;-70
2023/07/05 00:59:22;;;;;;;;;13.00;11.00;;;;;14.92;70.37;100848.25;4953581;28;45337;-70
2023/07/05 01:01:48;;;;;;;;;12.33;11.00;;;;;14.90;69.82;100863.34;4957441;28;45319;-70
2023/07/05 01:04:14;;;;;;;;;10.00;9.00;;;;;14.44;70.50;100787.53;4962251;28;45407;-70
2023/07/05 01:06:39;;;;;;;;;10.67;10.33;;;;;14.63;70.13;100839.16;4956418;28;45528;-71
2023/07/05 01:09:06;;;;;;;;;11.67;8.33;;;;;14.76;69.44;100862.34;4943638;28;45624;-70
2023/07/05 01:11:45;;;;;;;;;10.67;9.00;;;;;14.58;70.02;100849.75;4957960;28;45446;-70
2023/07/05 01:14:28;;;;;;;;;11.00;10.00;;;;;14.75;69.77;100874.72;4959950;28;45386;-70
2023/07/05 01:17:03;;;;;;;;;10.00;9.00;;;;;14.60;69.46;100852.44;4955213;28;45333;-70
2023/07/05 01:19:28;;;;;;;;;10.00;10.00;;;;;14.72;69.87;100879.16;4961230;28;45445;-70
2023/07/05 01:22:07;;;;;;;;;11.00;10.00;;;;;14.58;69.99;100859.50;4957012;28;45564;-70
2023/07/05 01:25:05;;;;;;;;;9.00;8.33;;;;;14.66;69.51;100869.34;4953726;28;45403;-70
2023/07/05 01:28:01;;;;;;;;;9.33;9.00;;;;;14.63;69.66;100885.28;4953016;28;45273;-70
2023/07/05 01:30:45;;;;;;;;;10.00;9.00;;;;;14.61;69.73;100872.84;4928488;28;45664;-70
2023/07/05 01:33:18;;;;;;;;;11.00;9.00;;;;;14.05;70.36;100796.94;4954584;28;45280;-70
2023/07/05 01:35:52;;;;;;;;;10.33;9.67;;;;;14.55;69.91;100871.00;4944455;28;46009;-70
2023/07/05 01:38:17;;;;;;;;;9.67;9.67;;;;;14.48;70.10;100888.66;4962043;28;48704;-70
2023/07/05 01:40:43;;;;;;;;;8.00;8.00;;;;;14.54;70.17;100895.84;4946101;28;45517;-70
2023/07/05 01:43:12;;;;;;;;;8.00;6.00;;;;;14.39;69.75;100864.63;4954643;28;45212;-70
2023/07/05 01:45:55;;;;;;;;;8.33;7.33;;;;;14.55;69.62;100898.50;4945697;28;45333;-70
2023/07/05 01:48:34;;;;;;;;;8.33;5.00;;;;;14.38;68.97;100869.94;4956271;28;45648;-70
2023/07/05 01:51:28;;;;;;;;;7.33;6.67;;;;;14.37;69.15;100870.78;4952133;28;45359;-70
2023/07/05 01:54:00;;;;;;;;;8.00;5.67;;;;;14.59;68.84;100922.47;4947012;28;45326;-71
2023/07/05 01:56:32;;;;;;;;;8.00;5.00;;;;;14.59;68.32;100923.38;4956317;28;45495;-70
2023/07/05 01:59:03;;;;;;;;;7.00;7.00;;;;;14.33;68.39;100880.50;4942800;28;47197;-71
2023/07/05 02:01:31;;;;;;;;;5.67;3.67;;;;;14.44;68.23;100910.78;4955438;28;45351;-70
2023/07/05 02:03:58;;;;;;;;;6.33;6.00;;;;;14.54;68.26;100933.09;4956486;28;45312;-70
2023/07/05 02:06:25;;;;;;;;;6.00;3.67;;;;;14.23;68.13;100878.66;4939467;28;45174;-70
2023/07/05 02:08:51;;;;;;;;;4.67;3.67;;;;;14.33;68.04;100905.34;4961045;28;45506;-70
2023/07/05 02:11:16;;;;;;;;;6.33;4.33;;;;;14.43;67.35;100927.63;4949306;28;45296;-70
2023/07/05 02:13:42;;;;;;;;;3.67;3.00;;;;;14.24;67.80;100910.56;4957449;28;45311;-70
2023/07/05 02:16:07;;;;;;;;;4.00;4.00;;;;;14.20;67.79;100905.19;4929575;28;46592;-70
2023/07/05 02:18:33;;;;;;;;;4.00;4.00;;;;;14.29;67.92;100935.44;4957168;28;45301;-70
2023/07/05 02:20:58;;;;;;;;;6.00;3.67;;;;;14.08;67.81;100897.97;4950010;28;45339;-70
2023/07/05 02:23:23;;;;;;;;;3.67;2.67;;;;;14.12;67.94;100925.50;4952857;28;45310;-70
2023/07/05 02:25:50;;;;;;;;;6.00;2.33;;;;;14.13;67.85;100944.09;4950663;28;45458;-70
2023/07/05 02:28:16;;;;;;;;;4.33;2.33;;;;;14.09;67.69;100948.50;4960935;28;46336;-70
2023/07/05 02:30:41;;;;;;;;;4.67;2.00;;;;;13.79;67.88;100901.16;4959286;28;45257;-70
2023/07/05 02:33:07;;;;;;;;;2.00;2.00;;;;;13.79;67.83;100897.63;4958971;28;45277;-70
2023/07/05 02:35:37;;;;;;;;;4.67;3.00;;;;;13.98;67.61;100939.50;4957701;28;45157;-70
2023/07/05 02:38:04;;;;;;;;;4.00;4.00;;;;;13.99;67.89;100951.03;4953178;28;46435;-73
2023/07/05 02:40:30;;;;;;;;;6.33;3.00;;;;;13.95;68.28;100949.19;4956340;28;45252;-69
2023/07/05 02:42:57;;;;;;;;;5.00;3.67;;;;;13.84;67.87;100938.44;4951985;28;45469;-70
2023/07/05 02:45:23;;;;;;;;;4.00;3.00;;;;;13.35;68.43;100860.72;4949449;28;45575;-70
2023/07/05 02:47:48;;;;;;;;;5.00;5.00;;;;;13.53;69.05;100902.59;4952942;28;45352;-70
2023/07/05 02:50:17;;;;;;;;;4.33;4.00;;;;;13.77;68.52;100952.50;4942792;28;53147;-70
2023/07/05 02:52:43;;;;;;;;;5.67;3.67;;;;;13.75;67.99;100960.47;4959202;28;45569;-69
2023/07/05 02:55:08;;;;;;;;;4.00;3.00;;;;;13.58;68.08;100931.00;4957093;28;45422;-70
2023/07/05 02:57:33;;;;;;;;;3.67;3.67;;;;;13.79;69.21;100975.56;4950944;28;45418;-70
2023/07/05 02:59:59;;;;;;;;;1.67;1.67;;;;;13.48;67.92;100922.88;4950498;28;45315;-70
2023/07/05 03:02:24;;;;;;;;;4.00;3.33;;;;;13.76;68.68;100978.19;4948797;28;45752;-71
2023/07/05 03:04:49;;;;;;;;;5.00;4.00;;;;;13.52;68.30;100938.88;4942594;28;54566;-71
2023/07/05 03:07:15;;;;;;;;;7.33;4.00;;;;;13.55;69.64;100957.50;4960440;28;46272;-71
2023/07/05 03:09:40;;;;;;;;;4.00;2.33;;;;;13.18;68.75;100894.97;4948639;28;45481;-70
2023/07/05 03:12:06;;;;;;;;;3.00;3.00;;;;;13.65;69.11;100972.72;4937927;28;45475;-71
2023/07/05 03:14:31;;;;;;;;;2.33;2.00;;;;;13.49;68.39;100953.88;4955033;28;45348;-70
2023/07/05 03:16:56;;;;;;;;;3.00;2.00;;;;;13.42;69.50;100953.78;4947615;28;45624;-71
2023/07/05 03:19:22;;;;;;;;;4.00;4.00;;;;;13.12;69.49;100901.06;4938084;28;45408;-71
2023/07/05 03:21:47;;;;;;;;;3.00;3.00;;;;;13.56;69.39;100985.88;4952048;28;45277;-71
2023/07/05 03:24:13;;;;;;;;;4.00;3.00;;;;;13.24;69.79;100929.56;4957265;28;45271;-70
2023/07/05 03:26:38;;;;;;;;;3.00;3.00;;;;;13.30;68.69;100950.91;4957024;28;45221;-71
2023/07/05 03:29:03;;;;;;;;;3.33;2.00;;;;;13.25;68.88;100947.28;4958105;28;47937;-72
2023/07/05 03:31:29;;;;;;;;;3.00;2.33;;;;;13.34;68.10;100967.81;4943116;28;45269;-70
2023/07/05 03:33:54;;;;;;;;;1.33;1.33;;;;;13.28;68.31;100968.63;4957817;28;45438;-71
2023/07/05 03:36:21;;;;;;;;;5.00;2.00;;;;;12.91;68.53;100916.63;4958005;28;47896;-71
2023/07/05 03:38:49;;;;;;;;;1.67;1.33;;;;;13.41;68.60;101009.50;4960076;28;45485;-71
2023/07/05 03:41:20;;;;;;;;;3.00;1.67;;;;;13.38;68.96;101005.03;4958581;28;45462;-71
2023/07/05 03:43:48;;;;;;;;;2.67;2.67;;;;;13.37;68.71;101015.66;4956631;28;45394;-71
2023/07/05 03:46:15;;;;;;;;;3.00;1.67;;;;;13.35;69.54;101010.31;4957893;28;45497;-71
2023/07/05 03:48:43;;;;;;;;;3.67;3.00;;;;;13.34;68.95;101011.19;4957623;28;45373;-70
2023/07/05 03:51:16;;;;;;;;;4.00;1.00;;;;;13.25;68.62;101008.34;4958171;28;45295;-70
2023/07/05 03:53:42;;;;;;;;;3.00;3.00;;;;;12.96;68.94;100962.72;4953447;28;45218;-71
2023/07/05 03:56:10;;;;;;;;;4.00;3.00;;;;;13.24;68.62;101019.81;4950234;28;46099;-71
2023/07/05 03:58:36;;;;;;;;;3.00;1.33;;;;;13.32;69.16;101030.59;4953148;28;45389;-70
2023/07/05 04:01:15;;;;;;;;;3.00;2.00;;;;;13.07;68.64;100997.41;4950326;28;45415;-71
2023/07/05 04:03:41;;;;;;;;;3.00;1.00;;;;;13.31;69.39;101042.09;4956205;28;45336;-71
2023/07/05 04:06:07;;;;;;;;;3.67;2.00;;;;;13.30;69.33;101035.00;4953106;28;46186;-70
2023/07/05 04:08:32;;;;;;;;;2.67;2.00;;;;;13.04;68.82;101008.84;4954885;28;46173;-70
2023/07/05 04:10:58;;;;;;;;;3.67;3.00;;;;;13.17;69.15;101033.88;4951984;28;46818;-71
2023/07/05 04:13:23;;;;;;;;;3.33;2.67;;;;;13.09;68.61;101019.56;4952357;28;45307;-71
2023/07/05 04:16:08;;;;;;;;;2.00;2.00;;;;;13.30;69.39;101062.41;4955230;28;45358;-71
2023/07/05 04:18:34;;;;;;;;;2.00;2.00;;;;;13.24;69.41;101048.13;4955886;28;45399;-70
2023/07/05 04:21:00;;;;;;;;;5.00;2.00;;;;;13.23;69.59;101041.94;4953176;28;45233;-71
2023/07/05 04:23:26;;;;;;;;;2.33;2.00;;;;;13.30;68.92;101070.38;4955673;28;45943;-71
2023/07/05 04:26:01;;;;;;;;;1.33;1.00;;;;;13.15;69.21;101051.50;4949800;28;45460;-71
2023/07/05 04:28:28;;;;;;;;;2.67;2.33;;;;;13.11;68.27;101028.47;4956452;28;45525;-71
2023/07/05 04:30:54;;;;;;;;;3.00;3.00;;;;;13.18;68.58;101051.56;4936801;28;45300;-70
2023/07/05 04:33:19;;;;;;;;;2.67;2.67;;;;;13.29;68.90;101086.31;4955410;28;45325;-71
2023/07/05 04:35:46;;;;;;;;;2.67;1.00;;;;;13.36;69.09;101083.78;4953182;28;46347;-70
2023/07/05 04:38:12;;;;;;;;;2.67;2.00;;;;;13.37;69.09;101090.88;4955706;28;45293;-71
2023/07/05 04:40:37;;;;;;;;;2.00;2.00;;;;;13.08;69.75;101039.00;4956877;28;45339;-71
2023/07/05 04:43:03;;;;;;;;;4.00;2.00;;;;;13.19;69.28;101064.88;4958015;28;45738;-71
2023/07/05 04:45:28;;;;;;;;;4.00;2.67;;;;;13.27;69.08;101061.50;4956696;28;45924;-71
2023/07/05 04:47:53;;;;;;;;;6.00;3.00;;;;;13.43;68.67;101090.09;4957394;28;48468;-71
2023/07/05 04:50:18;;;;;;;;;3.00;2.00;;;;;13.10;69.19;101027.53;4957113;28;45260;-72
2023/07/05 04:52:44;;;;;;;;;2.33;2.00;;;;;13.43;70.49;101095.41;4957534;28;49639;-71
2023/07/05 04:55:09;;;;;;;;;5.25;4.00;;;;;13.37;69.13;101080.25;4958351;28;46412;-71
2023/07/05 04:57:34;;;;;;;;;5.00;3.33;;;;;13.32;69.32;101075.75;4940432;28;45435;-71
2023/07/05 05:00:05;;;;;;;;;7.00;5.00;;;;;13.39;70.65;101078.53;4941036;28;45310;-71
2023/07/05 05:02:31;;;;;;;;;4.00;4.00;;;;;13.40;69.88;101088.28;4957228;28;45565;-71
2023/07/05 05:04:56;;;;;;;;;3.00;3.00;;;;;13.36;69.04;101069.59;4958469;28;46232;-71
2023/07/05 05:07:22;;;;;;;;;3.00;3.00;;;;;13.32;69.90;101071.31;4940675;28;45312;-71
2023/07/05 05:09:47;;;;;;;;;8.00;3.00;;;;;13.36;69.97;101072.25;4955931;28;47600;-71
2023/07/05 05:12:12;;;;;;;;;6.00;4.67;;;;;13.56;69.82;101107.16;4952248;28;47428;-72
2023/07/05 05:14:38;;;;;;;;;2.33;1.00;;;;;13.19;70.17;101045.38;4952546;28;46284;-72
2023/07/05 05:17:03;;;;;;;;;3.00;3.00;;;;;13.33;69.38;101050.97;4945566;28;45306;-71
2023/07/05 05:19:29;;;;;;;;;2.67;2.67;;;;;13.60;70.04;101109.84;4951313;28;45276;-72
2023/07/05 05:21:54;;;;;;;;;5.00;4.00;;;;;13.62;69.57;101105.47;4951906;28;45305;-72
2023/07/05 05:24:19;;;;;;;;;7.00;6.67;;;;;13.63;70.08;101109.91;4936821;28;47155;-71
2023/07/05 05:26:46;;;;;;;;;5.00;5.00;;;;;13.57;69.87;101098.31;4952913;28;48481;-72
2023/07/05 05:29:12;;;;;;;;;5.00;2.00;;;;;13.60;70.03;101085.97;4956601;28;45244;-72
2023/07/05 05:31:37;;;;;;;;;4.00;3.33;;;;;13.68;69.65;101096.72;4949906;28;45549;-72
2023/07/05 05:34:03;;;;;;;;;6.67;4.67;;;;;13.73;69.54;101086.19;4955926;28;46586;-72
2023/07/05 05:36:28;;;;;;;;;5.33;3.33;;;;;14.01;70.11;101120.28;4950142;28;45302;-71
2023/07/05 05:38:53;;;;;;;;;6.00;5.00;;;;;13.95;69.62;101085.63;4934784;28;45572;-72
2023/07/05 05:41:19;;;;;;;;;3.00;3.00;;;;;13.95;68.98;101069.69;4948060;28;54360;-72
2023/07/05 05:43:45;;;;;;;;;5.00;5.00;;;;;14.36;69.36;101126.97;4955231;28;45369;-72
2023/07/05 05:46:11;;;;;;;;;5.00;3.00;;;;;14.16;69.01;101068.19;4956886;28;45361;-72
2023/07/05 05:48:36;;;;;;;;;4.00;3.00;;;;;14.46;68.53;101112.94;4957035;28;45457;-71
2023/07/05 05:51:02;;;;;;;;;6.33;4.67;;;;;14.49;68.59;101123.63;4958903;28;45339;-72
2023/07/05 05:53:27;;;;;;;;;4.00;4.00;;;;;14.50;69.12;101125.41;4940844;28;48331;-71
2023/07/05 05:55:56;;;;;;;;;4.00;4.00;;;;;14.40;68.62;101107.53;4958488;28;45355;-72
2023/07/05 05:58:21;;;;;;;;;5.00;3.33;;;;;14.44;69.11;101107.59;4955160;28;45390;-71
2023/07/05 06:00:47;;;;;;;;;5.00;4.00;;;;;14.42;68.97;101113.75;4958127;28;45228;-72
2023/07/05 06:03:12;;;;;;;;;3.33;3.00;;;;;14.46;68.60;101113.84;4958608;28;45493;-72
2023/07/05 06:05:38;;;;;;;;;3.00;3.00;;;;;14.62;68.73;101136.25;4952433;28;45395;-73
2023/07/05 06:08:03;;;;;;;;;5.00;4.33;;;;;14.67;68.49;101137.19;4943064;28;45462;-72
2023/07/05 06:10:29;;;;;;;;;3.00;3.00;;;;;14.66;68.57;101127.44;4961063;28;45364;-72
2023/07/05 06:12:54;;;;;;;;;4.00;3.00;;;;;14.74;68.08;101132.84;4942900;28;47260;-72
2023/07/05 06:15:19;;;;;;;;;5.33;5.00;;;;;14.62;68.03;101100.75;4961607;28;45398;-72
2023/07/05 06:17:45;;;;;;;;;8.33;4.33;;;;;14.95;67.37;101150.84;4960343;28;45418;-72
2023/07/05 06:20:10;;;;;;;;;4.67;4.00;;;;;14.77;67.64;101103.63;4960815;28;53169;-71
2023/07/05 06:22:37;;;;;;;;;4.33;4.33;;;;;14.78;68.14;101097.41;4942837;28;48110;-72
2023/07/05 06:25:03;;;;;;;;;3.33;3.33;;;;;15.19;67.00;101137.81;4943549;28;46368;-72
2023/07/05 06:27:28;;;;;;;;;6.00;4.67;;;;;15.27;67.37;101140.56;4960143;28;45585;-73
2023/07/05 06:29:54;;;;;;;;;4.67;4.00;;;;;15.32;66.85;101132.59;4943461;28;46249;-72
2023/07/05 06:32:19;;;;;;;;;2.67;2.67;;;;;15.54;67.00;101147.91;4960167;28;45423;-72
2023/07/05 06:34:44;;;;;;;;;5.33;4.67;;;;;15.70;66.61;101142.78;4960591;28;45212;-72
2023/07/05 06:37:10;;;;;;;;;4.67;4.67;;;;;15.65;66.49;101116.94;4960254;28;45545;-72
2023/07/05 06:39:41;;;;;;;;;5.33;3.33;;;;;16.04;65.94;101146.59;4960864;28;45447;-71
2023/07/05 06:42:06;;;;;;;;;4.00;4.00;;;;;16.04;65.75;101110.16;4960125;28;45485;-71
2023/07/05 06:44:31;;;;;;;;;7.50;5.00;;;;;16.30;64.93;101139.69;4958706;28;45438;-71
2023/07/05 06:46:57;;;;;;;;;5.00;5.00;;;;;16.43;64.79;101131.75;4960426;28;45376;-72
2023/07/05 06:49:22;;;;;;;;;7.00;3.00;;;;;16.64;64.38;101139.88;4960363;28;45290;-72
2023/07/05 06:51:47;;;;;;;;;3.67;3.00;;;;;16.53;63.90;101104.25;4959395;28;45425;-72
2023/07/05 06:54:13;;;;;;;;;6.00;3.00;;;;;16.59;63.67;101111.38;4958888;28;45257;-71
2023/07/05 06:56:38;;;;;;;;;3.33;3.00;;;;;16.88;63.24;101149.78;4960068;28;48555;-71
2023/07/05 06:59:03;;;;;;;;;3.00;3.00;;;;;16.81;63.83;101133.75;4960130;28;45806;-71
2023/07/05 07:01:29;;;;;;;;;3.67;2.67;;;;;16.78;63.30;101131.97;4960633;28;45236;-72
2023/07/05 07:03:54;;;;;;;;;4.33;4.00;;;;;17.06;63.36;101180.16;4959446;28;45513;-72
2023/07/05 07:06:19;;;;;;;;;6.00;4.00;;;;;17.09;62.89;101185.50;4960196;28;45320;-72
2023/07/05 07:08:45;;;;;;;;;6.67;4.00;;;;;17.06;63.07;101169.47;4959565;28;45895;-72
2023/07/05 07:11:12;;;;;;;;;4.33;4.00;;;;;17.00;62.78;101168.56;4959806;28;45379;-73
2023/07/05 07:13:38;;;;;;;;;5.33;3.00;;;;;17.19;62.81;101206.00;4936220;28;45446;-71
2023/07/05 07:16:09;;;;;;;;;5.33;5.00;;;;;17.31;62.63;101191.78;4958940;28;45390;-71
2023/07/05 07:18:36;;;;;;;;;4.67;4.33;;;;;17.42;61.90;101190.03;4959316;28;45401;-72
2023/07/05 07:21:02;;;;;;;;;5.00;3.67;;;;;17.49;61.75;101191.84;4959498;28;45994;-71
2023/07/05 07:23:28;;;;;;;;;4.67;3.67;;;;;17.64;61.32;101199.91;4959457;28;45496;-70
2023/07/05 07:26:20;;;;;;;;;4.00;3.33;;;;;17.74;61.28;101200.81;4960103;28;46223;-71
2023/07/05 07:28:49;;;;;;;;;2.67;2.67;;;;;17.78;60.75;101193.66;4954685;28;45683;-71
2023/07/05 07:31:21;;;;;;;;;6.00;4.00;;;;;17.92;60.48;101205.28;4959891;28;45415;-70
2023/07/05 07:33:47;;;;;;;;;4.33;4.33;;;;;18.09;59.98;101202.63;4940529;28;45420;-71
2023/07/05 07:36:16;;;;;;;;;4.00;4.00;;;;;18.30;59.43;101201.72;4960146;28;45414;-70
2023/07/05 07:38:42;;;;;;;;;6.00;3.00;;;;;18.24;59.40;101165.16;4959288;28;45312;-70
2023/07/05 07:41:26;;;;;;;;;3.67;2.67;;;;;18.38;58.98;101172.28;4959661;28;45346;-70
2023/07/05 07:43:54;;;;;;;;;5.67;2.67;;;;;18.63;59.43;101200.78;4959346;28;45467;-71
2023/07/05 07:46:23;;;;;;;;;5.67;2.67;;;;;18.71;58.57;101196.31;4960272;28;45348;-70
2023/07/05 07:48:50;;;;;;;;;5.67;3.67;;;;;18.63;57.77;101170.44;4958751;28;45358;-71
2023/07/05 07:51:17;;;;;;;;;9.33;5.33;;;;;18.90;57.19;101218.56;4939125;28;47136;-70
2023/07/05 07:53:43;;;;;;;;;3.33;3.33;;;;;18.88;57.50;101236.47;4957790;28;45374;-71
2023/07/05 07:56:12;;;;;;;;;4.67;4.33;;;;;18.63;57.51;101192.75;4959865;28;45327;-71
2023/07/05 07:58:39;;;;;;;;;4.00;4.00;;;;;18.87;57.66;101236.47;4958896;28;45489;-71
2023/07/05 08:01:32;;;;;;;;;5.67;3.67;;;;;18.98;57.82;101237.31;4941892;28;45445;-71
2023/07/05 08:04:00;;;;;;;;;5.00;4.33;;;;;19.04;57.14;101228.38;4940999;28;45380;-71
2023/07/05 08:06:34;;;;;;;;;4.67;3.00;;;;;19.05;56.67;101231.06;4959126;28;45409;-72
2023/07/05 08:09:00;;;;;;;;;4.67;2.67;;;;;18.94;56.12;101192.69;4939789;28;45928;-71
2023/07/05 08:11:25;;;;;;;;;5.00;2.67;;;;;19.22;56.27;101221.16;4959586;28;46345;-71
2023/07/05 08:13:51;;;;;;;;;2.00;1.00;;;;;19.29;56.33;101205.03;4958880;28;45413;-71
2023/07/05 08:16:17;;;;;;;;;5.00;3.67;;;;;19.43;55.82;101209.41;4958606;28;44765;-71
2023/07/05 08:18:44;;;;;;;;;3.67;2.67;;;;;19.59;54.91;101193.25;4958867;28;45342;-71
2023/07/05 08:21:09;;;;;;;;;7.00;3.00;;;;;20.00;54.79;101224.31;4958531;28;45293;-71
2023/07/05 08:23:35;;;;;;;;;4.00;3.00;;;;;19.98;54.02;101183.16;4958880;28;45502;-71
2023/07/05 08:26:01;;;;;;;;;2.67;2.67;;;;;20.27;53.77;101213.31;4959982;28;45287;-71
2023/07/05 08:28:28;;;;;;;;;4.33;2.67;;;;;20.44;52.77;101209.56;4958562;28;45415;-71
2023/07/05 08:30:59;;;;;;;;;4.00;3.00;;;;;20.80;53.22;101221.78;4941642;28;46299;-70
2023/07/05 08:33:26;;;;;;;;;5.00;3.00;;;;;21.08;53.01;101210.69;4958812;28;45430;-70
2023/07/05 08:36:12;;;;;;;;;5.33;3.00;;;;;21.40;52.18;101223.78;4956839;28;45350;-68
2023/07/05 08:38:39;;;;;;;;;4.00;3.00;;;;;21.54;51.37;101224.47;4927461;28;45958;-68
2023/07/05 08:41:29;;;;;;;;;4.33;4.00;;;;;21.56;51.64;101245.94;4959284;28;46574;-68
2023/07/05 08:44:06;;;;;;;;;6.00;4.00;;;;;21.37;50.69;101224.69;4915302;28;45667;-68
2023/07/05 08:46:32;;;;;;;;;4.00;2.67;;;;;21.34;50.07;101245.31;4959459;28;45219;-67
2023/07/05 08:49:05;;;;;;;;;3.67;3.67;;;;;21.19;50.91;101252.66;4958067;28;45422;-67
2023/07/05 08:51:31;;;;;;;;;3.67;3.67;;;;;21.13;51.30;101263.50;4958830;28;45453;-67
2023/07/05 08:54:00;;;;;;;;;3.33;2.67;;;;;21.01;50.86;101250.22;4958307;28;45301;-67
2023/07/05 08:56:36;;;;;;;;;6.00;4.67;;;;;21.14;50.53;101256.31;4959144;28;45416;-68
2023/07/05 08:59:10;;;;;;;;;2.00;2.00;;;;;21.28;50.51;101259.72;4958759;28;45497;-67
2023/07/05 09:01:40;;;;;;;;;3.00;1.00;;;;;21.28;50.19;101253.47;4958708;28;45413;-68
2023/07/05 09:04:12;;;;;;;;;4.67;2.67;;;;;21.27;50.02;101262.44;4958143;28;45232;-67
2023/07/05 09:06:50;;;;;;;;;4.00;2.33;;;;;21.22;49.85;101263.38;4958454;28;45260;-67
2023/07/05 09:09:34;;;;;;;;;3.00;3.00;;;;;21.02;50.31;101244.81;4957710;28;45281;-67
2023/07/05 09:12:12;;;;;;;;;5.33;3.33;;;;;21.03;49.95;101267.19;4957681;28;46557;-67
2023/07/05 09:14:46;;;;;;;;;3.00;3.00;;;;;20.94;50.13;101276.25;4940919;28;45881;-67
2023/07/05 09:17:40;;;;;;;;;4.00;3.00;;;;;21.07;50.44;101278.81;4957780;28;45241;-67
2023/07/05 09:20:37;;;;;;;;;3.33;3.33;;;;;21.25;49.72;101262.44;4932213;28;45356;-68
2023/07/05 09:23:09;;;;;;;;;3.67;3.67;;;;;21.31;49.71;101269.56;4961879;28;45997;-67
2023/07/05 09:25:38;;;;;;;;;3.67;3.67;;;;;21.20;49.90;101242.78;4962256;28;45257;-67
2023/07/05 09:28:18;;;;;;;;;4.00;3.67;;;;;21.33;50.03;101248.91;4942484;28;45513;-67
2023/07/05 09:30:44;;;;;;;;;8.33;3.00;;;;;21.58;49.93;101233.38;4944501;28;46138;-67
2023/07/05 09:33:21;;;;;;;;;4.00;4.00;;;;;21.94;49.39;101263.34;4942938;28;46781;-67
2023/07/05 09:35:47;;;;;;;;;4.00;4.00;;;;;22.15;47.17;101257.59;4961750;28;45355;-67
2023/07/05 09:38:24;;;;;;;;;2.67;1.67;;;;;22.42;47.63;101228.47;4943641;28;45395;-68
2023/07/05 09:40:58;;;;;;;;;4.00;3.00;;;;;22.76;47.35;101217.94;4944348;28;45607;-67
2023/07/05 09:43:32;;;;;;;;;3.00;3.00;;;;;23.40;46.58;101256.25;4961607;28;45466;-68
2023/07/05 09:46:04;;;;;;;;;4.33;3.00;;;;;23.67;45.44;101257.44;4961613;28;45292;-67
2023/07/05 09:48:31;;;;;;;;;2.25;2.25;;;;;23.59;44.48;101241.41;4955491;28;44810;-68
2023/07/05 09:51:03;;;;;;;;;1.75;1.75;;;;;23.42;43.92;101225.59;4961238;28;45346;-68
2023/07/05 09:53:53;;;;;;;;;3.00;3.00;;;;;23.52;44.80;101264.06;4957902;28;46019;-67
2023/07/05 09:56:28;;;;;;;;;3.75;3.00;;;;;23.47;44.61;101263.28;4955672;28;45593;-67
2023/07/05 09:59:07;;;;;;;;;2.00;2.00;;;;;23.20;45.41;101235.97;4943759;28;45082;-68
2023/07/05 10:01:36;;;;;;;;;5.50;4.00;;;;;23.27;43.94;101254.72;4961616;28;45378;-68
2023/07/05 10:04:04;;;;;;;;;5.00;4.50;;;;;23.15;45.04;101253.16;4960574;28;45406;-68
2023/07/05 10:06:30;;;;;;;;;2.75;2.75;;;;;23.11;45.34;101268.53;4957732;28;45316;-67
2023/07/05 10:09:03;;;;;;;;;4.33;3.00;;;;;22.96;44.34;101263.41;4961108;28;45402;-67
2023/07/05 10:11:34;;;;;;;;;4.00;3.67;;;;;22.77;44.93;101266.47;4961332;28;45356;-68
2023/07/05 10:14:20;;;;;;;;;4.00;2.00;;;;;22.32;46.42;101241.19;4960879;28;45382;-67
2023/07/05 10:16:57;;;;;;;;;4.00;2.67;;;;;22.29;46.48;101273.56;4958665;28;45265;-68
2023/07/05 10:19:25;;;;;;;;;8.00;3.67;;;;;22.09;46.25;101250.53;4941823;28;45438;-68
2023/07/05 10:22:18;;;;;;;;;2.00;2.00;;;;;22.23;46.30;101273.69;4961063;28;45279;-68
2023/07/05 10:24:47;;;;;;;;;2.67;2.33;;;;;22.21;46.34;101262.03;4957692;28;45382;-67
2023/07/05 10:27:31;;;;;;;;;3.00;3.00;;;;;22.41;46.19;101273.38;4960985;28;45363;-67
2023/07/05 10:30:02;;;;;;;;;5.00;3.33;;;;;22.32;45.19;101242.13;4959220;28;45490;-68
2023/07/05 10:32:29;;;;;;;;;4.00;4.00;;;;;22.19;45.54;101227.06;4960401;28;45249;-67
2023/07/05 10:34:55;;;;;;;;;3.00;3.00;;;;;22.34;45.00;101236.69;4961579;28;46411;-67
2023/07/05 10:37:27;;;;;;;;;4.00;4.00;;;;;22.60;45.73;101267.66;4961170;28;45528;-67
2023/07/05 10:39:53;;;;;;;;;5.00;5.00;;;;;22.86;45.63;101270.78;4961603;28;45443;-67
2023/07/05 10:42:18;;;;;;;;;5.00;4.00;;;;;23.38;44.67;101274.25;4943435;28;45474;-67
2023/07/05 10:44:44;;;;;;;;;4.33;4.33;;;;;23.71;43.97;101279.88;4962083;28;45398;-67
2023/07/05 10:47:12;;;;;;;;;3.00;3.00;;;;;23.91;43.45;101285.72;4949024;28;45256;-67
2023/07/05 10:49:38;;;;;;;;;5.00;3.00;;;;;24.06;43.17;101284.47;4952051;28;45415;-69
2023/07/05 10:52:09;;;;;;;;;2.00;2.00;;;;;24.28;44.34;101280.34;4958984;28;45228;-67
2023/07/05 10:54:58;;;;;;;;;6.00;3.00;;;;;24.39;43.25;101281.84;4961067;28;45465;-68
2023/07/05 10:57:33;;;;;;;;;2.00;2.00;;;;;24.60;42.62;101277.78;4942600;28;45453;-67
2023/07/05 11:00:02;;;;;;;;;2.00;2.00;;;;;24.76;42.63;101269.22;4960116;28;45273;-68
2023/07/05 11:02:44;;;;;;;;;4.00;4.00;;;;;24.85;42.04;101261.78;4940615;28;45620;-67
2023/07/05 11:05:20;;;;;;;;;2.50;2.50;;;;;24.90;42.35;101244.50;4960125;28;45299;-68
2023/07/05 11:07:49;;;;;;;;;1.25;1.25;;;;;24.98;39.46;101244.25;4936903;28;45320;-68
2023/07/05 11:10:15;;;;;;;;;2.50;2.50;;;;;25.23;40.56;101253.50;4952952;28;45366;-68
2023/07/05 11:12:41;;;;;;;;;3.25;2.75;;;;;25.39;40.54;101228.66;4959366;28;45450;-68
2023/07/05 11:15:14;;;;;;;;;2.50;2.50;;;;;25.63;40.15;101235.16;4960364;28;45389;-67
2023/07/05 11:17:41;;;;;;;;;2.50;2.00;;;;;25.94;40.55;101264.00;4959686;28;45427;-68
2023/07/05 11:20:35;;;;;;;;;2.50;2.50;;;;;25.76;38.63;101263.59;4959036;28;45346;-68
2023/07/05 11:23:00;;;;;;;;;5.00;3.75;;;;;25.50;39.63;101226.50;4941749;28;47362;-68
2023/07/05 11:25:53;;;;;;;;;4.50;4.00;;;;;25.47;39.25;101253.69;4960452;28;45291;-67
2023/07/05 11:28:38;;;;;;;;;2.00;2.00;;;;;25.18;40.22;101230.22;4959719;28;45477;-67
2023/07/05 11:31:08;;;;;;;;;3.00;2.75;;;;;25.06;39.68;101230.50;4960198;28;45406;-67
2023/07/05 11:33:35;;;;;;;;;3.00;3.00;;;;;25.34;38.52;101254.97;4959620;28;45417;-68